createdAt,value
2022-10-04T00:01:04.063Z,14.63
2022-10-04T00:03:37.587Z,16.08
2022-10-04T00:06:05.851Z,14.20
2022-10-04T00:09:00.021Z,25.02
2022-10-04T00:11:34.536Z,18.55
2022-10-04T00:14:07.610Z,16.90
2022-10-04T00:16:40.570Z,20.70
2022-10-04T00:19:19.048Z,15.98
2022-10-04T00:22:12.408Z,14.67
2022-10-04T00:25:08.215Z,15.32
2022-10-04T00:27:36.059Z,12.18
2022-10-04T00:30:02.533Z,21.95
2022-10-04T00:32:46.142Z,15.98
2022-10-04T00:35:24.969Z,17.52
2022-10-04T00:38:01.016Z,26.85
2022-10-04T00:40:36.268Z,15.65
2022-10-04T00:43:08.639Z,20.95
2022-10-04T00:45:53.447Z,19.98
2022-10-04T00:48:39.167Z,22.67
2022-10-04T00:51:18.812Z,18.83
2022-10-04T00:54:03.291Z,21.90
2022-10-04T00:56:53.587Z,22.42
2022-10-04T00:59:44.244Z,27.58
2022-10-04T01:02:44.109Z,27.50
2022-10-04T01:05:29.708Z,22.58
2022-10-04T01:08:04.996Z,25.30
2022-10-04T01:10:36.640Z,21.52
2022-10-04T01:13:45.852Z,35.25
2022-10-04T01:19:24.302Z,28.92
2022-10-04T01:22:14.416Z,32.50
2022-10-04T01:24:45.865Z,30.40
2022-10-04T01:27:40.221Z,34.00
2022-10-04T01:30:11.101Z,38.42
2022-10-04T01:32:39.360Z,93.25
2022-10-04T01:35:11.528Z,51.22
2022-10-04T01:37:39.351Z,32.03
2022-10-04T01:40:08.734Z,40.40
2022-10-04T01:45:39.529Z,43.10
2022-10-04T01:48:12.564Z,31.40
2022-10-04T01:50:51.883Z,42.38
2022-10-04T01:55:51.805Z,50.65
2022-10-04T01:58:29.757Z,28.27
2022-10-04T02:01:14.595Z,24.70
2022-10-04T02:03:48.137Z,33.60
2022-10-04T02:06:15.914Z,34.88
2022-10-04T02:08:49.360Z,35.55
2022-10-04T02:11:21.255Z,24.98
2022-10-04T02:13:53.015Z,27.65
2022-10-04T02:16:21.557Z,19.90
2022-10-04T02:18:50.753Z,26.65
2022-10-04T02:21:18.757Z,55.50
2022-10-04T02:23:46.781Z,48.90
2022-10-04T02:26:13.842Z,35.53
2022-10-04T02:28:40.615Z,27.45
2022-10-04T02:31:27.134Z,39.40
2022-10-04T02:33:58.321Z,44.67
2022-10-04T02:36:28.399Z,30.92
2022-10-04T02:39:00.861Z,21.48
2022-10-04T02:41:43.146Z,20.05
2022-10-04T02:44:42.139Z,34.65
2022-10-04T02:47:23.073Z,35.63
2022-10-04T02:50:00.701Z,31.73
2022-10-04T02:52:39.336Z,12.50
2022-10-04T02:55:23.353Z,20.65
2022-10-04T02:57:52.263Z,18.25
2022-10-04T03:00:27.115Z,21.20
2022-10-04T03:03:16.585Z,10.38
2022-10-04T03:06:14.056Z,15.07
2022-10-04T03:08:43.558Z,11.23
2022-10-04T03:11:12.592Z,11.55
2022-10-04T03:13:46.298Z,19.23
2022-10-04T03:16:13.976Z,12.93
2022-10-04T03:18:42.058Z,15.80
2022-10-04T03:21:11.489Z,23.58
2022-10-04T03:26:23.701Z,50.25
2022-10-04T03:28:50.476Z,18.38
2022-10-04T03:31:19.729Z,22.73
2022-10-04T03:33:47.168Z,14.48
2022-10-04T03:36:18.067Z,36.22
2022-10-04T03:38:48.997Z,14.73
2022-10-04T03:41:16.503Z,16.52
2022-10-04T03:43:46.395Z,29.50
2022-10-04T03:46:14.398Z,34.60
2022-10-04T03:48:45.824Z,14.40
2022-10-04T03:51:19.545Z,22.42
2022-10-04T03:53:49.056Z,20.67
2022-10-04T03:56:21.295Z,16.35
2022-10-04T03:58:50.602Z,67.65
2022-10-04T04:01:40.840Z,20.17
2022-10-04T04:04:23.337Z,15.48
2022-10-04T04:06:50.325Z,17.50
2022-10-04T04:09:33.783Z,15.27
2022-10-04T04:12:02.532Z,21.00
2022-10-04T04:14:29.145Z,14.43
2022-10-04T04:17:35.857Z,15.98
2022-10-04T04:20:07.771Z,12.05
2022-10-04T04:22:36.090Z,13.43
2022-10-04T04:25:08.068Z,11.60
2022-10-04T04:27:38.692Z,16.02
2022-10-04T04:30:08.245Z,10.68
2022-10-04T04:32:40.178Z,11.88
2022-10-04T04:35:20.507Z,13.55
2022-10-04T04:38:06.949Z,10.55
2022-10-04T04:40:34.060Z,14.05
2022-10-04T04:43:02.828Z,24.77
2022-10-04T04:45:31.973Z,12.77
2022-10-04T04:48:01.077Z,12.65
2022-10-04T04:50:30.940Z,11.10
2022-10-04T04:53:03.737Z,12.10
2022-10-04T04:56:01.930Z,12.90
2022-10-04T04:58:32.924Z,11.35
2022-10-04T05:01:03.294Z,10.73
2022-10-04T05:03:34.006Z,16.30
2022-10-04T05:06:04.863Z,30.88
2022-10-04T05:08:40.174Z,14.32
2022-10-04T05:11:08.090Z,11.18
2022-10-04T05:13:41.040Z,9.70
2022-10-04T05:16:33.723Z,10.93
2022-10-04T05:19:03.893Z,10.57
2022-10-04T05:21:32.116Z,11.52
2022-10-04T05:24:09.697Z,8.27
2022-10-04T05:26:36.245Z,14.35
2022-10-04T05:29:11.314Z,8.93
2022-10-04T05:31:50.024Z,9.15
2022-10-04T05:34:25.180Z,13.90
2022-10-04T05:37:19.192Z,11.50
2022-10-04T05:40:14.373Z,14.52
2022-10-04T05:42:45.088Z,12.13
2022-10-04T05:45:18.445Z,10.43
2022-10-04T05:47:48.122Z,11.68
2022-10-04T05:50:19.884Z,11.98
2022-10-04T05:52:50.014Z,11.93
2022-10-04T05:55:19.029Z,11.50
2022-10-04T05:57:51.349Z,11.63
2022-10-04T06:00:23.962Z,11.18
2022-10-04T06:03:13.856Z,9.52
2022-10-04T06:05:49.394Z,8.18
2022-10-04T06:08:39.605Z,9.02
2022-10-04T06:11:42.291Z,8.63
2022-10-04T06:14:32.592Z,9.57
2022-10-04T06:17:14.540Z,9.38
2022-10-04T06:20:08.643Z,11.10
2022-10-04T06:22:43.551Z,12.65
2022-10-04T06:25:19.945Z,9.07
2022-10-04T06:28:15.157Z,11.75
2022-10-04T06:31:00.820Z,10.30
2022-10-04T06:33:46.177Z,10.93
2022-10-04T06:36:27.989Z,10.68
2022-10-04T06:39:19.108Z,13.98
2022-10-04T06:41:50.086Z,9.85
2022-10-04T06:44:55.333Z,10.80
2022-10-04T06:47:33.353Z,33.00
2022-10-04T06:50:42.219Z,30.83
2022-10-04T06:53:26.144Z,20.48
2022-10-04T06:56:34.177Z,13.60
2022-10-04T06:59:19.364Z,11.50
2022-10-04T07:01:51.780Z,11.07
2022-10-04T07:04:49.911Z,9.30
2022-10-04T07:07:40.879Z,11.15
2022-10-04T07:10:30.919Z,9.25
2022-10-04T07:13:12.480Z,9.35
2022-10-04T07:15:48.894Z,8.82
2022-10-04T07:18:22.363Z,11.05
2022-10-04T07:20:51.291Z,9.27
2022-10-04T07:23:36.196Z,12.00
2022-10-04T07:26:14.593Z,10.55
2022-10-04T07:29:02.281Z,9.98
2022-10-04T07:31:34.321Z,10.10
2022-10-04T07:34:30.560Z,12.95
2022-10-04T07:37:00.288Z,11.43
2022-10-04T07:40:03.626Z,8.52
2022-10-04T07:42:37.789Z,10.70
2022-10-04T07:45:13.529Z,10.50
2022-10-04T07:47:41.308Z,9.63
2022-10-04T07:50:27.169Z,7.35
2022-10-04T07:53:29.575Z,6.55
2022-10-04T07:56:13.495Z,8.90
2022-10-04T07:59:12.109Z,8.13
2022-10-04T08:01:47.865Z,7.35
2022-10-04T08:04:28.376Z,11.95
2022-10-04T08:06:59.491Z,7.03
2022-10-04T08:09:41.619Z,7.80
2022-10-04T08:12:37.655Z,8.63
2022-10-04T08:15:13.517Z,7.97
2022-10-04T08:18:04.804Z,8.63
2022-10-04T08:20:46.681Z,9.32
2022-10-04T08:23:22.049Z,8.80
2022-10-04T08:26:12.806Z,9.20
2022-10-04T08:29:23.524Z,6.93
2022-10-04T08:31:53.063Z,9.50
2022-10-04T08:34:37.620Z,6.68
2022-10-04T08:37:17.577Z,7.80
2022-10-04T08:40:23.945Z,8.18
2022-10-04T08:42:56.423Z,8.55
2022-10-04T08:45:38.675Z,11.23
2022-10-04T08:48:25.155Z,8.38
2022-10-04T08:51:25.615Z,11.32
2022-10-04T08:54:23.890Z,6.90
2022-10-04T08:57:16.453Z,7.60
2022-10-04T09:00:13.713Z,6.07
2022-10-04T09:03:21.715Z,13.00
2022-10-04T09:05:59.717Z,8.13
2022-10-04T09:09:00.661Z,12.30
2022-10-04T09:11:48.104Z,5.90
2022-10-04T09:14:42.994Z,10.05
2022-10-04T09:17:28.419Z,5.72
2022-10-04T09:20:37.937Z,7.53
2022-10-04T09:23:39.412Z,8.02
2022-10-04T09:26:42.053Z,10.63
2022-10-04T09:29:27.265Z,9.25
2022-10-04T09:32:21.763Z,7.20
2022-10-04T09:35:17.727Z,8.73
2022-10-04T09:38:11.938Z,7.55
2022-10-04T09:41:03.666Z,10.70
2022-10-04T09:44:12.981Z,11.38
2022-10-04T09:47:10.904Z,10.27
2022-10-04T09:49:59.092Z,9.37
2022-10-04T09:52:44.272Z,7.28
2022-10-04T09:55:31.299Z,9.93
2022-10-04T09:58:22.348Z,13.57
2022-10-04T10:01:02.268Z,8.15
2022-10-04T10:03:58.858Z,17.83
2022-10-04T10:07:02.682Z,28.40
2022-10-04T10:10:21.481Z,8.70
2022-10-04T10:13:37.922Z,7.78
2022-10-04T10:16:19.767Z,7.93
2022-10-04T10:19:28.166Z,8.15
